sensor_id;sensor_type;location;lat;lon;timestamp;P1;durP1;ratioP1;P2;durP2;ratioP2
10715;SDS011;5409;42.620;23.316;2022-12-07T00:01:24;58.72;;;33.83;;
10715;SDS011;5409;42.620;23.316;2022-12-07T00:03:52;64.72;;;34.20;;
10715;SDS011;5409;42.620;23.316;2022-12-07T00:06:23;59.28;;;33.88;;
10715;SDS011;5409;42.620;23.316;2022-12-07T00:08:50;59.83;;;33.88;;
10715;SDS011;5409;42.620;23.316;2022-12-07T00:11:18;59.30;;;32.67;;
10715;SDS011;5409;42.620;23.316;2022-12-07T00:13:45;56.72;;;33.47;;
10715;SDS011;5409;42.620;23.316;2022-12-07T00:16:13;51.88;;;32.22;;
10715;SDS011;5409;42.620;23.316;2022-12-07T00:18:41;52.20;;;29.17;;
10715;SDS011;5409;42.620;23.316;2022-12-07T00:21:09;52.72;;;28.25;;
10715;SDS011;5409;42.620;23.316;2022-12-07T00:23:39;47.72;;;28.95;;
10715;SDS011;5409;42.620;23.316;2022-12-07T00:26:07;54.35;;;29.55;;
10715;SDS011;5409;42.620;23.316;2022-12-07T00:28:35;50.20;;;29.38;;
10715;SDS011;5409;42.620;23.316;2022-12-07T00:31:03;55.65;;;28.23;;
10715;SDS011;5409;42.620;23.316;2022-12-07T00:33:32;46.70;;;27.90;;
10715;SDS011;5409;42.620;23.316;2022-12-07T00:35:59;47.95;;;29.50;;
10715;SDS011;5409;42.620;23.316;2022-12-07T00:38:27;50.10;;;29.27;;
10715;SDS011;5409;42.620;23.316;2022-12-07T00:40:57;61.30;;;34.78;;
10715;SDS011;5409;42.620;23.316;2022-12-07T00:43:25;55.88;;;30.45;;
10715;SDS011;5409;42.620;23.316;2022-12-07T00:45:52;46.83;;;27.50;;
10715;SDS011;5409;42.620;23.316;2022-12-07T00:48:19;33.22;;;22.15;;
10715;SDS011;5409;42.620;23.316;2022-12-07T00:50:46;37.95;;;23.15;;
10715;SDS011;5409;42.620;23.316;2022-12-07T00:53:13;50.60;;;30.58;;
10715;SDS011;5409;42.620;23.316;2022-12-07T00:55:41;55.50;;;32.33;;
10715;SDS011;5409;42.620;23.316;2022-12-07T00:58:09;57.20;;;34.28;;
10715;SDS011;5409;42.620;23.316;2022-12-07T01:00:37;42.00;;;27.45;;
10715;SDS011;5409;42.620;23.316;2022-12-07T01:03:05;43.05;;;27.95;;
10715;SDS011;5409;42.620;23.316;2022-12-07T01:05:33;47.47;;;27.70;;
10715;SDS011;5409;42.620;23.316;2022-12-07T01:08:00;47.17;;;29.80;;
10715;SDS011;5409;42.620;23.316;2022-12-07T01:10:27;52.92;;;33.60;;
10715;SDS011;5409;42.620;23.316;2022-12-07T01:12:55;51.25;;;30.77;;
10715;SDS011;5409;42.620;23.316;2022-12-07T01:15:23;50.88;;;28.75;;
10715;SDS011;5409;42.620;23.316;2022-12-07T01:17:50;47.50;;;28.55;;
10715;SDS011;5409;42.620;23.316;2022-12-07T01:20:17;62.95;;;32.30;;
10715;SDS011;5409;42.620;23.316;2022-12-07T01:22:44;53.55;;;28.73;;
10715;SDS011;5409;42.620;23.316;2022-12-07T01:25:10;46.90;;;28.70;;
10715;SDS011;5409;42.620;23.316;2022-12-07T01:27:37;51.85;;;28.23;;
10715;SDS011;5409;42.620;23.316;2022-12-07T01:30:05;60.42;;;30.42;;
10715;SDS011;5409;42.620;23.316;2022-12-07T01:32:34;54.17;;;31.40;;
10715;SDS011;5409;42.620;23.316;2022-12-07T01:35:01;69.55;;;34.35;;
10715;SDS011;5409;42.620;23.316;2022-12-07T01:37:28;63.47;;;33.92;;
10715;SDS011;5409;42.620;23.316;2022-12-07T01:39:59;56.75;;;31.45;;
10715;SDS011;5409;42.620;23.316;2022-12-07T01:42:26;61.65;;;35.00;;
10715;SDS011;5409;42.620;23.316;2022-12-07T01:48:04;53.97;;;29.38;;
10715;SDS011;5409;42.620;23.316;2022-12-07T01:50:32;53.15;;;31.83;;
10715;SDS011;5409;42.620;23.316;2022-12-07T01:53:01;64.32;;;35.95;;
10715;SDS011;5409;42.620;23.316;2022-12-07T01:55:31;66.28;;;33.80;;
10715;SDS011;5409;42.620;23.316;2022-12-07T01:57:58;60.03;;;30.95;;
10715;SDS011;5409;42.620;23.316;2022-12-07T02:00:25;62.03;;;34.08;;
10715;SDS011;5409;42.620;23.316;2022-12-07T02:02:53;59.05;;;31.95;;
10715;SDS011;5409;42.620;23.316;2022-12-07T02:05:25;63.00;;;31.98;;
10715;SDS011;5409;42.620;23.316;2022-12-07T02:07:53;34.85;;;21.17;;
10715;SDS011;5409;42.620;23.316;2022-12-07T02:10:24;39.00;;;22.60;;
10715;SDS011;5409;42.620;23.316;2022-12-07T02:12:54;49.15;;;28.00;;
10715;SDS011;5409;42.620;23.316;2022-12-07T02:15:24;48.45;;;28.50;;
10715;SDS011;5409;42.620;23.316;2022-12-07T02:17:59;49.10;;;27.70;;
10715;SDS011;5409;42.620;23.316;2022-12-07T02:20:34;62.25;;;32.10;;
10715;SDS011;5409;42.620;23.316;2022-12-07T02:26:12;53.22;;;26.67;;
10715;SDS011;5409;42.620;23.316;2022-12-07T02:31:57;48.92;;;24.38;;
10715;SDS011;5409;42.620;23.316;2022-12-07T02:34:34;38.85;;;23.73;;
10715;SDS011;5409;42.620;23.316;2022-12-07T02:37:08;41.70;;;22.77;;
10715;SDS011;5409;42.620;23.316;2022-12-07T02:39:42;41.63;;;22.92;;
10715;SDS011;5409;42.620;23.316;2022-12-07T02:42:15;49.20;;;24.65;;
10715;SDS011;5409;42.620;23.316;2022-12-07T02:44:46;44.60;;;24.60;;
10715;SDS011;5409;42.620;23.316;2022-12-07T02:47:14;42.70;;;24.70;;
10715;SDS011;5409;42.620;23.316;2022-12-07T02:49:43;50.65;;;26.80;;
10715;SDS011;5409;42.620;23.316;2022-12-07T02:52:11;49.10;;;24.58;;
10715;SDS011;5409;42.620;23.316;2022-12-07T02:54:38;52.35;;;24.88;;
10715;SDS011;5409;42.620;23.316;2022-12-07T02:57:07;46.15;;;23.20;;
10715;SDS011;5409;42.620;23.316;2022-12-07T02:59:53;43.20;;;22.25;;
10715;SDS011;5409;42.620;23.316;2022-12-07T03:02:28;51.13;;;23.63;;
10715;SDS011;5409;42.620;23.316;2022-12-07T03:05:08;44.47;;;21.52;;
10715;SDS011;5409;42.620;23.316;2022-12-07T03:07:46;37.20;;;21.17;;
10715;SDS011;5409;42.620;23.316;2022-12-07T03:10:22;36.55;;;20.10;;
10715;SDS011;5409;42.620;23.316;2022-12-07T03:12:57;32.63;;;19.45;;
10715;SDS011;5409;42.620;23.316;2022-12-07T03:15:31;21.67;;;12.35;;
10715;SDS011;5409;42.620;23.316;2022-12-07T03:18:01;17.27;;;10.88;;
10715;SDS011;5409;42.620;23.316;2022-12-07T03:20:31;18.02;;;8.32;;
10715;SDS011;5409;42.620;23.316;2022-12-07T03:23:02;22.92;;;8.10;;
10715;SDS011;5409;42.620;23.316;2022-12-07T03:25:34;15.07;;;8.35;;
10715;SDS011;5409;42.620;23.316;2022-12-07T03:28:06;14.60;;;7.45;;
10715;SDS011;5409;42.620;23.316;2022-12-07T03:30:37;19.27;;;7.95;;
10715;SDS011;5409;42.620;23.316;2022-12-07T03:33:10;15.13;;;8.13;;
10715;SDS011;5409;42.620;23.316;2022-12-07T03:35:40;15.30;;;8.48;;
10715;SDS011;5409;42.620;23.316;2022-12-07T03:38:13;13.43;;;7.28;;
10715;SDS011;5409;42.620;23.316;2022-12-07T03:40:46;18.23;;;8.77;;
10715;SDS011;5409;42.620;23.316;2022-12-07T03:43:16;17.63;;;8.45;;
10715;SDS011;5409;42.620;23.316;2022-12-07T03:45:47;17.90;;;9.90;;
10715;SDS011;5409;42.620;23.316;2022-12-07T03:48:26;13.05;;;8.32;;
10715;SDS011;5409;42.620;23.316;2022-12-07T03:51:02;23.50;;;9.30;;
10715;SDS011;5409;42.620;23.316;2022-12-07T03:53:35;14.45;;;7.93;;
10715;SDS011;5409;42.620;23.316;2022-12-07T03:56:06;14.02;;;7.22;;
10715;SDS011;5409;42.620;23.316;2022-12-07T03:58:34;14.40;;;8.82;;
10715;SDS011;5409;42.620;23.316;2022-12-07T04:01:03;13.50;;;8.25;;
10715;SDS011;5409;42.620;23.316;2022-12-07T04:03:30;15.57;;;8.13;;
10715;SDS011;5409;42.620;23.316;2022-12-07T04:05:57;17.55;;;9.20;;
10715;SDS011;5409;42.620;23.316;2022-12-07T04:08:24;14.68;;;8.70;;
10715;SDS011;5409;42.620;23.316;2022-12-07T04:10:51;17.65;;;9.13;;
10715;SDS011;5409;42.620;23.316;2022-12-07T04:13:18;15.82;;;9.55;;
10715;SDS011;5409;42.620;23.316;2022-12-07T04:15:45;17.02;;;8.68;;
10715;SDS011;5409;42.620;23.316;2022-12-07T04:18:13;16.42;;;8.70;;
10715;SDS011;5409;42.620;23.316;2022-12-07T04:20:39;20.85;;;11.20;;
10715;SDS011;5409;42.620;23.316;2022-12-07T04:23:06;21.00;;;12.95;;
10715;SDS011;5409;42.620;23.316;2022-12-07T04:25:33;28.45;;;16.45;;
10715;SDS011;5409;42.620;23.316;2022-12-07T04:28:00;28.70;;;17.13;;
10715;SDS011;5409;42.620;23.316;2022-12-07T04:30:26;27.48;;;16.42;;
10715;SDS011;5409;42.620;23.316;2022-12-07T04:32:53;26.92;;;16.15;;
10715;SDS011;5409;42.620;23.316;2022-12-07T04:35:21;25.08;;;15.68;;
10715;SDS011;5409;42.620;23.316;2022-12-07T04:37:48;27.92;;;17.83;;
10715;SDS011;5409;42.620;23.316;2022-12-07T04:40:15;25.25;;;15.63;;
10715;SDS011;5409;42.620;23.316;2022-12-07T04:42:42;28.05;;;15.80;;
10715;SDS011;5409;42.620;23.316;2022-12-07T04:45:09;33.15;;;16.55;;
10715;SDS011;5409;42.620;23.316;2022-12-07T04:47:36;26.02;;;15.65;;
10715;SDS011;5409;42.620;23.316;2022-12-07T04:50:03;25.83;;;13.18;;
10715;SDS011;5409;42.620;23.316;2022-12-07T04:52:32;21.00;;;13.15;;
10715;SDS011;5409;42.620;23.316;2022-12-07T04:54:58;22.27;;;10.20;;
10715;SDS011;5409;42.620;23.316;2022-12-07T04:57:25;20.00;;;12.32;;
10715;SDS011;5409;42.620;23.316;2022-12-07T04:59:52;20.00;;;11.85;;
10715;SDS011;5409;42.620;23.316;2022-12-07T05:02:18;29.85;;;12.55;;
10715;SDS011;5409;42.620;23.316;2022-12-07T05:04:45;27.30;;;12.80;;
10715;SDS011;5409;42.620;23.316;2022-12-07T05:07:12;18.95;;;11.02;;
10715;SDS011;5409;42.620;23.316;2022-12-07T05:09:40;25.20;;;12.10;;
10715;SDS011;5409;42.620;23.316;2022-12-07T05:12:07;20.45;;;11.77;;
10715;SDS011;5409;42.620;23.316;2022-12-07T05:14:33;21.48;;;10.77;;
10715;SDS011;5409;42.620;23.316;2022-12-07T05:17:00;16.52;;;9.60;;
10715;SDS011;5409;42.620;23.316;2022-12-07T05:19:27;17.45;;;10.82;;
10715;SDS011;5409;42.620;23.316;2022-12-07T05:21:54;21.92;;;10.15;;
10715;SDS011;5409;42.620;23.316;2022-12-07T05:24:20;22.75;;;11.40;;
10715;SDS011;5409;42.620;23.316;2022-12-07T05:26:49;30.50;;;16.02;;
10715;SDS011;5409;42.620;23.316;2022-12-07T05:29:16;35.55;;;18.67;;
10715;SDS011;5409;42.620;23.316;2022-12-07T05:31:43;24.63;;;12.68;;
10715;SDS011;5409;42.620;23.316;2022-12-07T05:34:11;35.05;;;18.60;;
10715;SDS011;5409;42.620;23.316;2022-12-07T05:36:38;27.88;;;16.10;;
10715;SDS011;5409;42.620;23.316;2022-12-07T05:39:05;28.15;;;14.13;;
10715;SDS011;5409;42.620;23.316;2022-12-07T05:41:32;28.15;;;13.57;;
10715;SDS011;5409;42.620;23.316;2022-12-07T05:44:17;29.33;;;12.55;;
10715;SDS011;5409;42.620;23.316;2022-12-07T05:46:44;22.70;;;11.45;;
10715;SDS011;5409;42.620;23.316;2022-12-07T05:49:11;14.18;;;8.93;;
10715;SDS011;5409;42.620;23.316;2022-12-07T05:51:38;18.27;;;9.35;;
10715;SDS011;5409;42.620;23.316;2022-12-07T05:54:04;21.23;;;10.13;;
10715;SDS011;5409;42.620;23.316;2022-12-07T05:56:31;28.25;;;12.95;;
10715;SDS011;5409;42.620;23.316;2022-12-07T05:58:58;22.55;;;10.32;;
10715;SDS011;5409;42.620;23.316;2022-12-07T06:01:44;16.27;;;9.85;;
10715;SDS011;5409;42.620;23.316;2022-12-07T06:04:11;20.38;;;9.30;;
10715;SDS011;5409;42.620;23.316;2022-12-07T06:06:37;40.60;;;18.83;;
10715;SDS011;5409;42.620;23.316;2022-12-07T06:09:04;37.03;;;19.25;;
10715;SDS011;5409;42.620;23.316;2022-12-07T06:11:31;33.55;;;19.92;;
10715;SDS011;5409;42.620;23.316;2022-12-07T06:14:15;38.53;;;21.40;;
10715;SDS011;5409;42.620;23.316;2022-12-07T06:16:41;47.05;;;25.63;;
10715;SDS011;5409;42.620;23.316;2022-12-07T06:19:10;48.33;;;26.65;;
10715;SDS011;5409;42.620;23.316;2022-12-07T06:21:36;47.08;;;24.20;;
10715;SDS011;5409;42.620;23.316;2022-12-07T06:24:03;51.67;;;25.90;;
10715;SDS011;5409;42.620;23.316;2022-12-07T06:26:31;64.60;;;28.05;;
10715;SDS011;5409;42.620;23.316;2022-12-07T06:28:57;62.33;;;26.60;;
10715;SDS011;5409;42.620;23.316;2022-12-07T06:31:24;81.57;;;37.25;;
10715;SDS011;5409;42.620;23.316;2022-12-07T06:33:56;64.32;;;28.70;;
10715;SDS011;5409;42.620;23.316;2022-12-07T06:36:23;84.05;;;34.53;;
10715;SDS011;5409;42.620;23.316;2022-12-07T06:38:50;70.40;;;33.20;;
10715;SDS011;5409;42.620;23.316;2022-12-07T06:41:17;64.03;;;30.63;;
10715;SDS011;5409;42.620;23.316;2022-12-07T06:43:44;64.10;;;33.47;;
10715;SDS011;5409;42.620;23.316;2022-12-07T06:46:10;60.92;;;31.10;;
10715;SDS011;5409;42.620;23.316;2022-12-07T06:48:37;58.47;;;28.67;;
10715;SDS011;5409;42.620;23.316;2022-12-07T06:51:05;63.08;;;27.48;;
10715;SDS011;5409;42.620;23.316;2022-12-07T06:53:32;58.03;;;28.42;;
10715;SDS011;5409;42.620;23.316;2022-12-07T06:55:59;56.40;;;28.73;;
10715;SDS011;5409;42.620;23.316;2022-12-07T06:58:26;57.17;;;28.88;;
10715;SDS011;5409;42.620;23.316;2022-12-07T07:00:53;66.75;;;29.60;;
10715;SDS011;5409;42.620;23.316;2022-12-07T07:03:20;66.85;;;32.72;;
10715;SDS011;5409;42.620;23.316;2022-12-07T07:05:47;77.70;;;32.45;;
10715;SDS011;5409;42.620;23.316;2022-12-07T07:08:15;75.78;;;35.63;;
10715;SDS011;5409;42.620;23.316;2022-12-07T07:10:41;150.48;;;55.15;;
10715;SDS011;5409;42.620;23.316;2022-12-07T07:13:08;94.45;;;47.25;;
10715;SDS011;5409;42.620;23.316;2022-12-07T07:15:37;199.10;;;51.92;;
10715;SDS011;5409;42.620;23.316;2022-12-07T07:18:04;247.77;;;52.75;;
10715;SDS011;5409;42.620;23.316;2022-12-07T07:20:31;127.75;;;47.67;;
10715;SDS011;5409;42.620;23.316;2022-12-07T07:22:58;132.88;;;48.08;;
10715;SDS011;5409;42.620;23.316;2022-12-07T07:25:26;96.68;;;36.75;;
10715;SDS011;5409;42.620;23.316;2022-12-07T07:27:53;130.02;;;37.20;;
10715;SDS011;5409;42.620;23.316;2022-12-07T07:30:20;81.93;;;37.45;;
10715;SDS011;5409;42.620;23.316;2022-12-07T07:32:46;77.78;;;33.33;;
10715;SDS011;5409;42.620;23.316;2022-12-07T07:35:13;103.82;;;32.65;;
10715;SDS011;5409;42.620;23.316;2022-12-07T07:37:40;83.25;;;32.78;;
10715;SDS011;5409;42.620;23.316;2022-12-07T07:40:07;60.28;;;25.35;;
10715;SDS011;5409;42.620;23.316;2022-12-07T07:42:36;52.75;;;24.70;;
10715;SDS011;5409;42.620;23.316;2022-12-07T07:45:03;66.53;;;26.08;;
10715;SDS011;5409;42.620;23.316;2022-12-07T07:47:30;71.35;;;26.55;;
10715;SDS011;5409;42.620;23.316;2022-12-07T07:49:57;55.95;;;27.33;;
10715;SDS011;5409;42.620;23.316;2022-12-07T07:52:24;65.85;;;28.20;;
10715;SDS011;5409;42.620;23.316;2022-12-07T07:54:51;56.08;;;26.63;;
10715;SDS011;5409;42.620;23.316;2022-12-07T07:57:18;52.30;;;25.42;;
10715;SDS011;5409;42.620;23.316;2022-12-07T07:59:46;49.70;;;25.48;;
10715;SDS011;5409;42.620;23.316;2022-12-07T08:02:13;49.33;;;27.15;;
10715;SDS011;5409;42.620;23.316;2022-12-07T08:04:41;74.78;;;35.95;;
10715;SDS011;5409;42.620;23.316;2022-12-07T08:07:08;81.22;;;38.83;;
10715;SDS011;5409;42.620;23.316;2022-12-07T08:09:35;86.38;;;39.50;;
10715;SDS011;5409;42.620;23.316;2022-12-07T08:12:02;83.70;;;38.58;;
10715;SDS011;5409;42.620;23.316;2022-12-07T08:14:29;95.43;;;37.88;;
10715;SDS011;5409;42.620;23.316;2022-12-07T08:16:57;83.15;;;38.42;;
10715;SDS011;5409;42.620;23.316;2022-12-07T08:19:24;107.47;;;37.63;;
10715;SDS011;5409;42.620;23.316;2022-12-07T08:21:51;124.93;;;39.25;;
10715;SDS011;5409;42.620;23.316;2022-12-07T08:24:18;85.88;;;36.38;;
10715;SDS011;5409;42.620;23.316;2022-12-07T08:26:44;100.90;;;46.40;;
10715;SDS011;5409;42.620;23.316;2022-12-07T08:29:11;121.93;;;51.53;;
10715;SDS011;5409;42.620;23.316;2022-12-07T08:31:38;110.57;;;47.33;;
10715;SDS011;5409;42.620;23.316;2022-12-07T08:34:06;109.72;;;47.67;;
10715;SDS011;5409;42.620;23.316;2022-12-07T08:36:33;124.45;;;50.15;;
10715;SDS011;5409;42.620;23.316;2022-12-07T08:39:00;128.50;;;50.63;;
10715;SDS011;5409;42.620;23.316;2022-12-07T08:41:26;125.88;;;55.35;;
10715;SDS011;5409;42.620;23.316;2022-12-07T08:43:53;113.95;;;51.38;;
10715;SDS011;5409;42.620;23.316;2022-12-07T08:46:21;121.47;;;54.83;;
10715;SDS011;5409;42.620;23.316;2022-12-07T08:48:51;122.22;;;54.80;;
10715;SDS011;5409;42.620;23.316;2022-12-07T08:51:23;112.32;;;52.90;;
10715;SDS011;5409;42.620;23.316;2022-12-07T08:53:50;116.43;;;53.75;;
10715;SDS011;5409;42.620;23.316;2022-12-07T08:56:18;98.93;;;48.88;;
10715;SDS011;5409;42.620;23.316;2022-12-07T08:58:46;100.53;;;46.95;;
10715;SDS011;5409;42.620;23.316;2022-12-07T09:01:14;107.65;;;51.88;;
10715;SDS011;5409;42.620;23.316;2022-12-07T09:03:41;161.43;;;73.20;;
10715;SDS011;5409;42.620;23.316;2022-12-07T09:06:07;159.77;;;79.35;;
10715;SDS011;5409;42.620;23.316;2022-12-07T09:08:37;166.65;;;79.50;;
10715;SDS011;5409;42.620;23.316;2022-12-07T09:11:08;172.20;;;78.25;;
10715;SDS011;5409;42.620;23.316;2022-12-07T09:13:35;164.82;;;77.13;;
10715;SDS011;5409;42.620;23.316;2022-12-07T09:16:02;149.63;;;74.22;;
10715;SDS011;5409;42.620;23.316;2022-12-07T09:18:29;127.63;;;65.07;;
10715;SDS011;5409;42.620;23.316;2022-12-07T09:20:55;128.05;;;63.30;;
10715;SDS011;5409;42.620;23.316;2022-12-07T09:23:23;129.73;;;63.10;;
10715;SDS011;5409;42.620;23.316;2022-12-07T09:25:51;144.45;;;71.20;;
10715;SDS011;5409;42.620;23.316;2022-12-07T09:28:18;132.05;;;67.20;;
10715;SDS011;5409;42.620;23.316;2022-12-07T09:30:45;107.43;;;57.72;;
10715;SDS011;5409;42.620;23.316;2022-12-07T09:33:12;122.90;;;62.67;;
10715;SDS011;5409;42.620;23.316;2022-12-07T09:35:43;109.93;;;56.20;;
10715;SDS011;5409;42.620;23.316;2022-12-07T09:38:10;104.10;;;55.65;;
10715;SDS011;5409;42.620;23.316;2022-12-07T09:40:37;91.70;;;49.25;;
10715;SDS011;5409;42.620;23.316;2022-12-07T09:43:11;85.97;;;51.05;;
10715;SDS011;5409;42.620;23.316;2022-12-07T09:45:40;76.75;;;44.05;;
10715;SDS011;5409;42.620;23.316;2022-12-07T09:48:09;81.93;;;44.63;;
10715;SDS011;5409;42.620;23.316;2022-12-07T09:50:44;79.30;;;43.60;;
10715;SDS011;5409;42.620;23.316;2022-12-07T09:53:12;60.97;;;35.80;;
10715;SDS011;5409;42.620;23.316;2022-12-07T09:55:43;68.85;;;39.20;;
10715;SDS011;5409;42.620;23.316;2022-12-07T09:58:13;60.92;;;35.95;;
10715;SDS011;5409;42.620;23.316;2022-12-07T10:00:46;61.83;;;36.15;;
10715;SDS011;5409;42.620;23.316;2022-12-07T10:03:13;54.97;;;32.38;;
10715;SDS011;5409;42.620;23.316;2022-12-07T10:05:41;53.75;;;32.50;;
10715;SDS011;5409;42.620;23.316;2022-12-07T10:08:10;56.20;;;32.92;;
10715;SDS011;5409;42.620;23.316;2022-12-07T10:10:38;50.70;;;29.73;;
10715;SDS011;5409;42.620;23.316;2022-12-07T10:13:07;53.80;;;32.88;;
10715;SDS011;5409;42.620;23.316;2022-12-07T10:15:44;52.45;;;31.10;;
10715;SDS011;5409;42.620;23.316;2022-12-07T10:18:20;57.78;;;34.10;;
10715;SDS011;5409;42.620;23.316;2022-12-07T10:20:59;50.90;;;31.90;;
10715;SDS011;5409;42.620;23.316;2022-12-07T10:23:33;45.10;;;30.13;;
10715;SDS011;5409;42.620;23.316;2022-12-07T10:26:06;52.75;;;31.40;;
10715;SDS011;5409;42.620;23.316;2022-12-07T10:28:47;59.35;;;38.88;;
10715;SDS011;5409;42.620;23.316;2022-12-07T10:31:17;57.65;;;35.63;;
10715;SDS011;5409;42.620;23.316;2022-12-07T10:33:49;59.47;;;34.75;;
10715;SDS011;5409;42.620;23.316;2022-12-07T10:36:19;51.60;;;30.23;;
10715;SDS011;5409;42.620;23.316;2022-12-07T10:38:49;47.92;;;27.55;;
10715;SDS011;5409;42.620;23.316;2022-12-07T10:41:17;42.13;;;25.55;;
10715;SDS011;5409;42.620;23.316;2022-12-07T10:43:49;39.50;;;23.38;;
10715;SDS011;5409;42.620;23.316;2022-12-07T10:49:25;36.28;;;22.25;;
10715;SDS011;5409;42.620;23.316;2022-12-07T10:52:30;35.10;;;21.45;;
10715;SDS011;5409;42.620;23.316;2022-12-07T10:55:13;29.02;;;17.48;;
10715;SDS011;5409;42.620;23.316;2022-12-07T10:58:06;22.17;;;11.80;;
10715;SDS011;5409;42.620;23.316;2022-12-07T11:00:54;20.13;;;13.45;;
10715;SDS011;5409;42.620;23.316;2022-12-07T11:03:30;27.60;;;16.95;;
10715;SDS011;5409;42.620;23.316;2022-12-07T11:06:12;25.77;;;16.73;;
10715;SDS011;5409;42.620;23.316;2022-12-07T11:08:49;26.55;;;17.42;;
10715;SDS011;5409;42.620;23.316;2022-12-07T11:11:31;31.55;;;18.05;;
10715;SDS011;5409;42.620;23.316;2022-12-07T11:14:03;26.48;;;16.48;;
10715;SDS011;5409;42.620;23.316;2022-12-07T11:16:42;18.20;;;13.30;;
10715;SDS011;5409;42.620;23.316;2022-12-07T11:19:29;15.52;;;9.90;;
10715;SDS011;5409;42.620;23.316;2022-12-07T11:22:09;18.67;;;10.02;;
10715;SDS011;5409;42.620;23.316;2022-12-07T11:24:46;11.07;;;7.63;;
10715;SDS011;5409;42.620;23.316;2022-12-07T11:27:19;22.52;;;13.50;;
10715;SDS011;5409;42.620;23.316;2022-12-07T11:32:53;14.02;;;8.07;;
10715;SDS011;5409;42.620;23.316;2022-12-07T11:35:34;9.00;;;6.57;;
10715;SDS011;5409;42.620;23.316;2022-12-07T11:38:10;10.82;;;7.22;;
10715;SDS011;5409;42.620;23.316;2022-12-07T11:40:40;10.82;;;7.00;;
10715;SDS011;5409;42.620;23.316;2022-12-07T11:43:13;15.27;;;7.82;;
10715;SDS011;5409;42.620;23.316;2022-12-07T11:45:47;11.95;;;8.00;;
10715;SDS011;5409;42.620;23.316;2022-12-07T11:48:22;10.15;;;6.10;;
10715;SDS011;5409;42.620;23.316;2022-12-07T11:50:56;10.48;;;5.95;;
10715;SDS011;5409;42.620;23.316;2022-12-07T11:53:27;8.23;;;5.72;;
10715;SDS011;5409;42.620;23.316;2022-12-07T11:56:00;9.98;;;7.13;;
10715;SDS011;5409;42.620;23.316;2022-12-07T11:58:35;10.05;;;6.05;;
10715;SDS011;5409;42.620;23.316;2022-12-07T12:01:11;13.95;;;7.35;;
10715;SDS011;5409;42.620;23.316;2022-12-07T12:03:46;12.90;;;8.05;;
10715;SDS011;5409;42.620;23.316;2022-12-07T12:06:15;16.67;;;9.18;;
10715;SDS011;5409;42.620;23.316;2022-12-07T12:08:44;11.75;;;7.80;;
10715;SDS011;5409;42.620;23.316;2022-12-07T12:11:21;10.77;;;8.02;;
10715;SDS011;5409;42.620;23.316;2022-12-07T12:20:02;16.17;;;9.13;;
10715;SDS011;5409;42.620;23.316;2022-12-07T12:22:34;13.07;;;8.40;;
10715;SDS011;5409;42.620;23.316;2022-12-07T12:25:07;13.45;;;9.15;;
10715;SDS011;5409;42.620;23.316;2022-12-07T12:27:46;17.13;;;9.88;;
10715;SDS011;5409;42.620;23.316;2022-12-07T12:30:25;22.55;;;14.27;;
10715;SDS011;5409;42.620;23.316;2022-12-07T12:33:01;18.45;;;12.43;;
10715;SDS011;5409;42.620;23.316;2022-12-07T12:35:31;13.30;;;9.15;;
10715;SDS011;5409;42.620;23.316;2022-12-07T12:41:01;17.40;;;8.50;;
10715;SDS011;5409;42.620;23.316;2022-12-07T12:43:48;15.35;;;7.63;;
10715;SDS011;5409;42.620;23.316;2022-12-07T12:46:36;12.80;;;8.90;;
10715;SDS011;5409;42.620;23.316;2022-12-07T12:49:16;15.45;;;9.25;;
10715;SDS011;5409;42.620;23.316;2022-12-07T12:52:00;15.52;;;9.63;;
10715;SDS011;5409;42.620;23.316;2022-12-07T12:54:57;15.20;;;9.73;;
10715;SDS011;5409;42.620;23.316;2022-12-07T12:57:28;16.38;;;9.48;;
10715;SDS011;5409;42.620;23.316;2022-12-07T12:59:56;15.70;;;8.52;;
10715;SDS011;5409;42.620;23.316;2022-12-07T13:02:25;17.88;;;10.80;;
10715;SDS011;5409;42.620;23.316;2022-12-07T13:04:54;14.90;;;11.45;;
10715;SDS011;5409;42.620;23.316;2022-12-07T13:10:24;22.50;;;11.35;;
10715;SDS011;5409;42.620;23.316;2022-12-07T13:13:00;21.20;;;12.60;;
10715;SDS011;5409;42.620;23.316;2022-12-07T13:15:36;17.60;;;11.18;;
10715;SDS011;5409;42.620;23.316;2022-12-07T13:18:04;20.20;;;11.05;;
10715;SDS011;5409;42.620;23.316;2022-12-07T13:20:51;21.70;;;12.63;;
10715;SDS011;5409;42.620;23.316;2022-12-07T13:23:24;21.40;;;13.13;;
10715;SDS011;5409;42.620;23.316;2022-12-07T13:25:59;23.30;;;12.45;;
10715;SDS011;5409;42.620;23.316;2022-12-07T13:28:35;19.52;;;11.60;;
10715;SDS011;5409;42.620;23.316;2022-12-07T13:33:58;20.27;;;12.75;;
10715;SDS011;5409;42.620;23.316;2022-12-07T13:36:26;19.77;;;13.15;;
10715;SDS011;5409;42.620;23.316;2022-12-07T13:38:57;25.08;;;13.68;;
10715;SDS011;5409;42.620;23.316;2022-12-07T13:41:25;22.42;;;13.50;;
10715;SDS011;5409;42.620;23.316;2022-12-07T13:44:01;21.60;;;11.10;;
10715;SDS011;5409;42.620;23.316;2022-12-07T13:46:34;26.33;;;12.25;;
10715;SDS011;5409;42.620;23.316;2022-12-07T13:49:16;17.00;;;10.27;;
10715;SDS011;5409;42.620;23.316;2022-12-07T13:51:45;15.27;;;11.05;;
10715;SDS011;5409;42.620;23.316;2022-12-07T13:54:12;22.60;;;12.07;;
10715;SDS011;5409;42.620;23.316;2022-12-07T13:56:40;20.90;;;12.45;;
10715;SDS011;5409;42.620;23.316;2022-12-07T13:59:12;18.52;;;12.10;;
10715;SDS011;5409;42.620;23.316;2022-12-07T14:01:42;19.95;;;11.18;;
10715;SDS011;5409;42.620;23.316;2022-12-07T14:04:19;19.17;;;11.02;;
10715;SDS011;5409;42.620;23.316;2022-12-07T14:06:56;18.60;;;11.75;;
10715;SDS011;5409;42.620;23.316;2022-12-07T14:09:24;20.08;;;12.93;;
10715;SDS011;5409;42.620;23.316;2022-12-07T14:11:53;22.48;;;11.80;;
10715;SDS011;5409;42.620;23.316;2022-12-07T14:14:23;18.50;;;10.60;;
10715;SDS011;5409;42.620;23.316;2022-12-07T14:16:56;20.48;;;10.38;;
10715;SDS011;5409;42.620;23.316;2022-12-07T14:19:41;19.33;;;9.18;;
10715;SDS011;5409;42.620;23.316;2022-12-07T14:22:26;15.15;;;9.35;;
10715;SDS011;5409;42.620;23.316;2022-12-07T14:25:13;13.77;;;9.23;;
10715;SDS011;5409;42.620;23.316;2022-12-07T14:27:50;15.02;;;9.20;;
10715;SDS011;5409;42.620;23.316;2022-12-07T14:30:23;15.70;;;9.18;;
10715;SDS011;5409;42.620;23.316;2022-12-07T14:32:52;11.82;;;7.95;;
10715;SDS011;5409;42.620;23.316;2022-12-07T14:35:21;15.95;;;7.32;;
10715;SDS011;5409;42.620;23.316;2022-12-07T14:37:48;31.05;;;16.02;;
10715;SDS011;5409;42.620;23.316;2022-12-07T14:40:16;69.40;;;35.50;;
10715;SDS011;5409;42.620;23.316;2022-12-07T14:42:44;11.68;;;7.55;;
10715;SDS011;5409;42.620;23.316;2022-12-07T14:45:13;8.98;;;6.18;;
10715;SDS011;5409;42.620;23.316;2022-12-07T14:47:43;11.02;;;5.43;;
10715;SDS011;5409;42.620;23.316;2022-12-07T14:50:11;8.57;;;5.90;;
10715;SDS011;5409;42.620;23.316;2022-12-07T14:52:39;12.75;;;7.50;;
10715;SDS011;5409;42.620;23.316;2022-12-07T14:55:12;11.60;;;5.95;;
10715;SDS011;5409;42.620;23.316;2022-12-07T14:57:42;11.05;;;6.05;;
10715;SDS011;5409;42.620;23.316;2022-12-07T15:00:13;8.70;;;5.95;;
10715;SDS011;5409;42.620;23.316;2022-12-07T15:02:41;9.70;;;6.38;;
10715;SDS011;5409;42.620;23.316;2022-12-07T15:05:09;7.70;;;5.55;;
10715;SDS011;5409;42.620;23.316;2022-12-07T15:07:36;7.80;;;5.50;;
10715;SDS011;5409;42.620;23.316;2022-12-07T15:10:03;10.65;;;6.63;;
10715;SDS011;5409;42.620;23.316;2022-12-07T15:12:31;9.93;;;7.28;;